Time;durP1;ratioP1;P1;durP2;ratioP2;P2;SDS_P1;SDS_P2;PMS_P1;PMS_P2;Temp;Humidity;BMP_temperature;BMP_pressure;BME280_temperature;BME280_humidity;BME280_pressure;Samples;Min_cycle;Max_cycle;Signal;HPM_P1;HPM_P2
2023/11/20 00:01:34;;;;;;;1.10;1.00;;;;;;;7.23;41.51;93722.22;4930642;28;20097;-76
2023/11/20 00:04:02;;;;;;;1.42;1.33;;;;;;;7.38;41.73;93733.59;4947059;28;20027;-79
2023/11/20 00:06:28;;;;;;;2.00;1.10;;;;;;;7.25;41.44;93717.41;4933601;28;20066;-77
2023/11/20 00:08:53;;;;;;;2.05;1.00;;;;;;;7.26;42.66;93715.56;4930205;28;20155;-80
2023/11/20 00:11:19;;;;;;;2.63;1.05;;;;;;;7.39;42.07;93738.56;4930634;28;20058;-80
2023/11/20 00:13:45;;;;;;;1.63;0.90;;;;;;;7.30;41.66;93740.34;4932876;28;20032;-79
2023/11/20 00:16:12;;;;;;;1.02;0.90;;;;;;;7.57;41.44;93755.44;4930252;28;20035;-80
2023/11/20 00:18:38;;;;;;;1.45;1.08;;;;;;;7.34;40.61;93741.31;4935141;28;20035;-80
2023/11/20 00:21:04;;;;;;;1.33;1.13;;;;;;;7.43;40.64;93736.94;4933668;28;20459;-80
2023/11/20 00:23:29;;;;;;;1.13;0.80;;;;;;;7.65;40.57;93750.25;4933392;28;20767;-80
2023/11/20 00:25:55;;;;;;;0.95;0.73;;;;;;;7.61;40.87;93748.47;4935115;28;20039;-80
2023/11/20 00:28:20;;;;;;;1.30;1.00;;;;;;;7.51;40.57;93760.06;4950900;28;20096;-79
2023/11/20 00:30:45;;;;;;;1.10;1.00;;;;;;;7.50;40.62;93762.97;4933922;28;20035;-79
2023/11/20 00:33:11;;;;;;;1.25;1.00;;;;;;;7.34;40.21;93781.00;4936360;28;20038;-78
2023/11/20 00:35:36;;;;;;;3.70;1.63;;;;;;;6.95;39.89;93784.09;4932890;28;20044;-79
2023/11/20 00:38:03;;;;;;;2.97;1.90;;;;;;;6.45;40.21;93791.00;4935475;28;20070;-78
2023/11/20 00:40:28;;;;;;;3.25;2.20;;;;;;;5.84;40.92;93806.84;4933831;28;20019;-79
2023/11/20 00:42:54;;;;;;;8.25;3.60;;;;;;;6.23;41.68;93806.63;4936332;28;20364;-79
2023/11/20 00:45:19;;;;;;;5.13;2.83;;;;;;;6.27;40.54;93804.97;4936094;28;20036;-79
2023/11/20 00:47:45;;;;;;;4.03;2.97;;;;;;;6.26;40.95;93806.81;4936601;28;20031;-78
2023/11/20 00:50:10;;;;;;;7.50;3.33;;;;;;;6.50;41.41;93803.34;4931333;28;20050;-80
2023/11/20 00:52:36;;;;;;;6.80;3.33;;;;;;;6.71;41.33;93800.06;4934900;28;20113;-79
2023/11/20 00:55:09;;;;;;;4.90;3.50;;;;;;;6.49;40.65;93759.47;4936726;28;20019;-79
2023/11/20 00:57:36;;;;;;;5.47;3.95;;;;;;;6.59;40.34;93791.81;4934277;28;20028;-79
2023/11/20 01:00:02;;;;;;;7.72;4.05;;;;;;;6.86;40.78;93785.81;4935471;28;20027;-79
2023/11/20 01:02:27;;;;;;;7.53;4.25;;;;;;;6.95;39.79;93754.22;4934076;28;20050;-75
2023/11/20 01:04:53;;;;;;;9.75;5.30;;;;;;;6.86;40.09;93744.31;4935008;28;20040;-79
2023/11/20 01:07:18;;;;;;;8.07;3.85;;;;;;;6.91;40.75;93740.00;4935781;28;20447;-79
2023/11/20 01:09:44;;;;;;;8.20;3.97;;;;;;;6.77;40.88;93717.00;4934096;28;20070;-79
2023/11/20 01:12:09;;;;;;;5.97;3.78;;;;;;;6.94;40.59;93718.28;4933985;28;20035;-80
2023/11/20 01:14:35;;;;;;;6.28;3.47;;;;;;;6.45;41.91;93717.00;4934610;28;20031;-76
2023/11/20 01:17:00;;;;;;;5.03;2.58;;;;;;;6.24;41.79;93690.13;4929956;28;20040;-79
2023/11/20 01:19:26;;;;;;;2.30;1.65;;;;;;;6.27;42.92;93723.88;4921087;28;20596;-79
2023/11/20 01:21:51;;;;;;;5.10;3.20;;;;;;;5.86;42.49;93715.75;4931210;28;20031;-79
2023/11/20 01:24:17;;;;;;;7.47;3.63;;;;;;;6.05;43.25;93734.22;4931694;28;20127;-80
2023/11/20 01:26:42;;;;;;;3.80;1.90;;;;;;;6.11;42.21;93738.38;4936142;28;20039;-78
2023/11/20 01:29:08;;;;;;;2.97;1.23;;;;;;;6.27;42.92;93731.00;4933868;28;20047;-77
2023/11/20 01:31:34;;;;;;;2.67;0.93;;;;;;;6.69;41.59;93728.25;4938842;28;20035;-80
2023/11/20 01:33:59;;;;;;;1.55;1.45;;;;;;;6.71;41.31;93712.06;4934089;28;20035;-79
2023/11/20 01:36:25;;;;;;;0.90;0.80;;;;;;;6.78;41.61;93736.28;4933954;28;20035;-79
2023/11/20 01:38:50;;;;;;;0.82;0.80;;;;;;;6.82;40.71;93719.53;4936426;28;20491;-79
2023/11/20 01:41:17;;;;;;;1.00;0.90;;;;;;;6.92;41.44;93752.94;4937727;28;20032;-79
2023/11/20 01:43:42;;;;;;;1.30;1.00;;;;;;;6.81;40.79;93756.84;4930317;28;20039;-78
2023/11/20 01:46:11;;;;;;;1.42;1.00;;;;;;;6.98;40.97;93772.94;4933090;28;20038;-78
2023/11/20 01:48:37;;;;;;;2.45;0.77;;;;;;;7.01;40.49;93780.28;4933314;28;20071;-79
2023/11/20 01:51:04;;;;;;;1.13;0.90;;;;;;;6.99;40.19;93771.88;4934905;28;20046;-79
2023/11/20 01:53:31;;;;;;;0.80;0.80;;;;;;;7.05;40.61;93761.97;4933147;28;20046;-79
2023/11/20 01:55:57;;;;;;;1.33;1.00;;;;;;;7.18;40.40;93766.50;4937849;28;20067;-78
2023/11/20 01:58:25;;;;;;;1.23;1.00;;;;;;;7.17;40.42;93736.63;4934095;28;20085;-79
2023/11/20 02:00:51;;;;;;;1.20;1.10;;;;;;;7.21;41.17;93761.41;4933764;28;20019;-80
2023/11/20 02:03:17;;;;;;;0.90;0.90;;;;;;;7.35;40.34;93740.25;4932736;28;20039;-79
2023/11/20 02:05:43;;;;;;;1.80;1.20;;;;;;;7.30;40.49;93737.69;4932488;28;20031;-79
2023/11/20 02:08:08;;;;;;;1.63;0.85;;;;;;;7.53;40.07;93751.81;4938945;28;20046;-79
2023/11/20 02:10:34;;;;;;;1.83;0.80;;;;;;;7.66;40.37;93751.81;4934092;28;20044;-79
2023/11/20 02:13:00;;;;;;;1.73;0.90;;;;;;;7.73;40.33;93746.91;4931427;28;20415;-77
2023/11/20 02:15:25;;;;;;;1.00;0.90;;;;;;;7.90;39.70;93748.97;4934417;28;20036;-80
2023/11/20 02:17:51;;;;;;;1.80;1.00;;;;;;;7.61;39.45;93735.25;4930957;28;20063;-79
2023/11/20 02:20:16;;;;;;;2.15;1.00;;;;;;;7.63;39.63;93751.63;4934022;28;20027;-79
2023/11/20 02:22:41;;;;;;;0.80;0.80;;;;;;;7.68;39.59;93732.97;4932255;28;20031;-79
2023/11/20 02:25:07;;;;;;;1.63;0.90;;;;;;;7.70;39.96;93742.19;4935641;28;20027;-79
2023/11/20 02:28:01;;;;;;;0.70;0.70;;;;;;;7.83;39.54;93751.22;4931573;28;20035;-79
2023/11/20 02:30:28;;;;;;;1.10;1.00;;;;;;;7.75;40.00;93737.91;4947974;28;20043;-78
2023/11/20 02:32:53;;;;;;;1.15;0.90;;;;;;;7.63;40.01;93704.75;4933171;28;20121;-78
2023/11/20 02:35:19;;;;;;;1.35;0.93;;;;;;;7.90;39.70;93740.22;4934572;28;20715;-79
2023/11/20 02:37:46;;;;;;;2.25;1.25;;;;;;;7.96;39.70;93731.09;4932460;28;20094;-79
2023/11/20 02:40:11;;;;;;;1.48;0.90;;;;;;;7.93;39.96;93729.03;4930420;28;20024;-78
2023/11/20 02:42:37;;;;;;;1.90;0.98;;;;;;;8.03;39.75;93740.19;4931088;28;20633;-80
2023/11/20 02:45:02;;;;;;;1.05;0.90;;;;;;;8.04;39.78;93740.97;4934421;28;20432;-80
2023/11/20 02:47:28;;;;;;;0.77;0.77;;;;;;;8.28;40.09;93751.31;4932744;28;20031;-77
2023/11/20 02:49:53;;;;;;;1.15;0.82;;;;;;;8.14;40.24;93756.66;4928666;28;20461;-77
2023/11/20 02:52:19;;;;;;;1.83;0.90;;;;;;;7.95;40.44;93732.19;4938920;28;20110;-78
2023/11/20 02:54:44;;;;;;;1.73;1.23;;;;;;;8.10;40.46;93753.03;4932669;28;20027;-79
2023/11/20 02:57:10;;;;;;;0.80;0.80;;;;;;;8.12;40.30;93764.09;4932182;28;20122;-79
2023/11/20 02:59:35;;;;;;;1.73;0.90;;;;;;;8.11;40.22;93736.06;4932745;28;20044;-80
2023/11/20 03:02:01;;;;;;;0.85;0.85;;;;;;;8.23;40.27;93740.81;4934896;28;20118;-76
2023/11/20 03:04:27;;;;;;;0.73;0.73;;;;;;;8.28;40.26;93732.75;4930096;28;20399;-81
2023/11/20 03:06:52;;;;;;;1.77;1.02;;;;;;;7.91;39.96;93694.94;4932534;28;20534;-79
2023/11/20 03:09:17;;;;;;;0.88;0.77;;;;;;;8.23;40.12;93738.97;4932103;28;20578;-79
2023/11/20 03:11:43;;;;;;;1.05;0.90;;;;;;;8.19;40.37;93727.41;4931882;28;20219;-79
2023/11/20 03:14:08;;;;;;;1.88;1.77;;;;;;;8.26;40.90;93727.78;4927745;28;20114;-79
2023/11/20 03:16:34;;;;;;;1.83;1.08;;;;;;;8.30;41.64;93733.25;4932578;28;20035;-80
2023/11/20 03:19:00;;;;;;;1.48;1.00;;;;;;;8.32;41.70;93723.91;4950432;28;20015;-80
2023/11/20 03:21:27;;;;;;;1.42;1.33;;;;;;;8.41;41.85;93730.06;4933768;28;20122;-80
2023/11/20 03:23:53;;;;;;;0.85;0.85;;;;;;;8.50;41.65;93714.22;4950353;28;20123;-78
2023/11/20 03:26:25;;;;;;;0.70;0.70;;;;;;;8.46;42.04;93689.41;4934659;28;20097;-78
2023/11/20 03:28:51;;;;;;;0.73;0.73;;;;;;;8.44;42.31;93696.88;4933191;28;20035;-78
2023/11/20 03:31:17;;;;;;;1.20;0.93;;;;;;;8.28;43.20;93659.34;4933918;28;20030;-79
2023/11/20 03:33:45;;;;;;;0.73;0.70;;;;;;;8.31;43.56;93687.91;4934076;28;20086;-81
2023/11/20 03:36:11;;;;;;;0.80;0.80;;;;;;;8.32;42.04;93689.47;4932358;28;20036;-80
2023/11/20 03:38:36;;;;;;;0.80;0.80;;;;;;;8.33;42.36;93688.38;4933300;28;20031;-79
2023/11/20 03:41:02;;;;;;;2.05;1.08;;;;;;;8.45;42.24;93701.88;4934390;28;20035;-78
2023/11/20 03:43:28;;;;;;;1.05;0.80;;;;;;;8.40;42.38;93659.59;4932868;28;20042;-74
2023/11/20 03:45:54;;;;;;;1.10;0.80;;;;;;;8.71;42.01;93690.63;4935433;28;20019;-79
2023/11/20 03:48:19;;;;;;;1.23;0.80;;;;;;;8.74;42.17;93693.47;4935484;28;20041;-80
2023/11/20 03:50:45;;;;;;;1.30;0.90;;;;;;;8.69;41.82;93708.72;4935581;28;20310;-79
2023/11/20 03:53:10;;;;;;;1.35;0.70;;;;;;;8.59;41.38;93704.47;4937812;28;20035;-80
2023/11/20 03:55:36;;;;;;;1.00;0.90;;;;;;;8.61;41.71;93683.72;4935598;28;20042;-79
2023/11/20 03:58:02;;;;;;;3.10;1.67;;;;;;;8.55;41.44;93692.91;4936416;28;20538;-79
2023/11/20 04:00:29;;;;;;;1.17;0.90;;;;;;;8.48;41.52;93680.06;4935395;28;20053;-74
2023/11/20 04:02:55;;;;;;;1.20;1.00;;;;;;;8.71;41.24;93675.50;4951428;28;20038;-80
2023/11/20 04:05:22;;;;;;;1.58;1.00;;;;;;;8.59;41.11;93670.78;4951935;28;20040;-74
2023/11/20 04:07:47;;;;;;;2.63;1.27;;;;;;;8.65;41.86;93665.34;4935841;28;20076;-79
2023/11/20 04:10:13;;;;;;;5.45;2.40;;;;;;;8.37;41.49;93676.09;4936538;28;20130;-78
2023/11/20 04:12:38;;;;;;;2.70;2.17;;;;;;;8.45;40.93;93683.34;4937555;28;20443;-79
2023/11/20 04:15:04;;;;;;;2.97;2.35;;;;;;;8.51;40.48;93691.94;4933573;28;20803;-79
2023/11/20 04:17:30;;;;;;;4.90;3.03;;;;;;;8.47;40.21;93712.16;4936390;28;20602;-78
2023/11/20 04:19:55;;;;;;;4.55;2.60;;;;;;;8.25;40.69;93691.75;4935398;28;20388;-80
2023/11/20 04:22:21;;;;;;;5.65;3.20;;;;;;;8.11;40.77;93688.38;4938018;28;20024;-80
2023/11/20 04:24:46;;;;;;;5.35;3.28;;;;;;;7.56;40.96;93701.72;4932507;28;20050;-78
2023/11/20 04:27:12;;;;;;;7.22;4.20;;;;;;;7.09;41.98;93699.50;4937418;28;20809;-76
2023/11/20 04:29:38;;;;;;;5.20;4.15;;;;;;;7.29;41.59;93693.78;4936515;28;20476;-79
2023/11/20 04:32:04;;;;;;;5.32;4.32;;;;;;;7.48;41.87;93717.53;4950484;28;20035;-79
2023/11/20 04:34:29;;;;;;;4.95;3.42;;;;;;;7.58;41.68;93714.69;4935523;28;20665;-80
2023/11/20 04:36:54;;;;;;;5.40;3.70;;;;;;;7.43;42.10;93739.59;4936832;28;20155;-78
2023/11/20 04:39:20;;;;;;;4.30;3.42;;;;;;;7.04;42.59;93702.25;4934940;28;20038;-80
2023/11/20 04:41:45;;;;;;;5.80;4.03;;;;;;;6.76;43.04;93712.78;4934497;28;20629;-80
2023/11/20 04:44:11;;;;;;;7.13;3.75;;;;;;;6.76;43.25;93706.69;4950848;28;20180;-78
2023/11/20 04:46:49;;;;;;;4.30;3.22;;;;;;;6.94;43.83;93727.00;4936126;28;20070;-79
2023/11/20 04:50:06;;;;;;;5.07;3.65;;;;;;;7.02;43.73;93725.53;4929864;28;20046;-78
2023/11/20 04:56:19;;;;;;;5.28;3.83;;;;;;;6.65;44.33;93719.28;4936388;28;20042;-77
2023/11/20 04:59:11;;;;;;;3.78;2.72;;;;;;;6.62;44.44;93716.47;4938779;28;20043;-79
2023/11/20 05:01:39;;;;;;;7.00;3.10;;;;;;;6.53;44.73;93728.75;4931775;28;20071;-78
2023/11/20 05:04:05;;;;;;;7.15;3.65;;;;;;;6.18;44.55;93744.09;4935935;28;20590;-78
2023/11/20 05:06:50;;;;;;;8.02;3.50;;;;;;;6.08;45.53;93746.06;4935577;28;20043;-77
2023/11/20 05:10:25;;;;;;;13.60;6.20;;;;;;;6.04;45.65;93739.78;4938505;28;20047;-79
2023/11/20 05:13:25;;;;;;;14.45;7.00;;;;;;;6.26;45.47;93753.25;4933225;28;20051;-78
2023/11/20 05:16:35;;;;;;;14.80;6.82;;;;;;;6.19;45.09;93750.94;4933886;28;20055;-80
2023/11/20 05:20:06;;;;;;;9.30;5.53;;;;;;;6.19;45.38;93739.59;4923249;28;20048;-78
2023/11/20 05:23:11;;;;;;;10.20;5.40;;;;;;;6.30;45.49;93741.81;4917524;29;20174;-79
2023/11/20 05:25:54;;;;;;;8.98;5.00;;;;;;;6.26;45.89;93746.06;4903794;29;20035;-79
2023/11/20 05:28:36;;;;;;;12.57;5.78;;;;;;;6.20;46.55;93738.53;4936613;28;20039;-78
2023/11/20 05:31:05;;;;;;;8.00;5.57;;;;;;;6.29;46.79;93728.88;4918266;28;20174;-78
2023/11/20 05:34:27;;;;;;;8.18;4.85;;;;;;;6.47;45.90;93722.00;4939153;28;20043;-80
2023/11/20 05:37:30;;;;;;;5.75;4.68;;;;;;;6.30;45.58;93731.25;4933112;28;20062;-79
2023/11/20 05:41:00;;;;;;;8.02;4.60;;;;;;;6.00;47.40;93684.94;4935719;28;20035;-77
2023/11/20 05:47:28;;;;;;;7.53;3.97;;;;;;;6.39;46.49;93749.84;4933221;28;20086;-79
2023/11/20 05:54:27;;;;;;;11.73;5.15;;;;;;;6.50;45.87;93751.28;4935249;28;20529;-78
2023/11/20 05:57:38;;;;;;;8.50;4.38;;;;;;;6.53;46.29;93763.13;4917659;29;20050;-77
2023/11/20 06:00:39;;;;;;;7.78;4.78;;;;;;;6.55;47.24;93753.06;4876331;29;20048;-78
2023/11/20 06:04:08;;;;;;;9.95;4.38;;;;;;;6.74;45.40;93745.88;4906462;29;20051;-80
2023/11/20 06:07:20;;;;;;;7.10;4.07;;;;;;;6.78;44.24;93745.00;4900521;29;20056;-79
2023/11/20 06:10:22;;;;;;;7.30;4.07;;;;;;;6.69;44.47;93754.66;4896822;29;20164;-79
2023/11/20 06:20:16;;;;;;;9.93;5.55;;;;;;;6.55;46.10;93732.72;4913819;29;20571;-78
2023/11/20 06:23:03;;;;;;;20.40;6.80;;;;;;;6.57;47.02;93725.25;4897476;29;20043;-79
2023/11/20 06:26:47;;;;;;;15.45;8.35;;;;;;;6.62;46.95;93732.31;4896272;29;20036;-79
2023/11/20 06:29:38;;;;;;;12.65;6.15;;;;;;;6.78;46.33;93741.56;4887577;29;20167;-77
2023/11/20 06:32:44;;;;;;;9.00;5.43;;;;;;;6.68;46.49;93752.31;4881261;29;20083;-78
2023/11/20 06:35:52;;;;;;;21.67;8.50;;;;;;;6.59;46.57;93760.13;4892607;29;20059;-79
2023/11/20 06:39:18;;;;;;;24.40;11.52;;;;;;;6.26;46.60;93771.72;4882251;29;20529;-79
2023/11/20 06:41:50;;;;;;;21.45;9.27;;;;;;;6.48;45.62;93766.63;4821153;29;20278;-78
2023/11/20 06:44:15;;;;;;;17.27;9.18;;;;;;;6.48;45.40;93771.91;4895872;29;20100;-80
2023/11/20 06:46:40;;;;;;;13.55;8.38;;;;;;;6.53;45.44;93755.19;4897045;29;20051;-77
2023/11/20 06:49:06;;;;;;;15.07;6.97;;;;;;;6.78;44.33;93774.06;4899554;29;20664;-78
2023/11/20 06:51:32;;;;;;;13.23;7.43;;;;;;;6.75;44.41;93769.34;4895734;29;20512;-79
2023/11/20 06:53:57;;;;;;;11.52;7.60;;;;;;;6.71;44.51;93763.06;4896828;29;20040;-79
2023/11/20 06:56:23;;;;;;;10.90;6.28;;;;;;;6.78;43.88;93774.06;4900860;29;20044;-78
2023/11/20 06:58:50;;;;;;;11.35;7.15;;;;;;;6.84;43.91;93774.78;4911841;29;20048;-80
2023/11/20 07:01:17;;;;;;;14.80;6.47;;;;;;;6.23;44.37;93761.72;4913300;29;20051;-78
2023/11/20 07:03:43;;;;;;;10.35;7.20;;;;;;;6.27;44.46;93773.28;4901903;29;20027;-78
2023/11/20 07:06:19;;;;;;;9.70;6.22;;;;;;;6.58;43.97;93769.09;4916283;29;20047;-79
2023/11/20 07:08:44;;;;;;;9.32;6.55;;;;;;;6.59;43.87;93746.13;4913473;29;20051;-79
2023/11/20 07:11:10;;;;;;;11.52;6.65;;;;;;;6.64;43.78;93752.09;4916455;29;20071;-79
2023/11/20 07:13:36;;;;;;;15.10;6.82;;;;;;;6.62;43.67;93743.66;4928977;28;20046;-79
2023/11/20 07:16:01;;;;;;;12.13;7.28;;;;;;;6.77;43.72;93761.91;4922346;28;20035;-78
2023/11/20 07:18:27;;;;;;;10.57;6.28;;;;;;;7.09;43.53;93769.03;4941679;28;20087;-76
2023/11/20 07:20:54;;;;;;;15.52;8.18;;;;;;;6.93;43.93;93774.88;4930426;28;20043;-78
2023/11/20 07:23:20;;;;;;;18.58;7.82;;;;;;;6.20;44.07;93661.94;4927718;28;20399;-78
2023/11/20 07:25:46;;;;;;;16.75;8.20;;;;;;;7.05;43.90;93767.25;4930670;28;20046;-78
2023/11/20 07:28:11;;;;;;;13.13;7.82;;;;;;;7.11;43.98;93781.97;4931864;28;20038;-79
2023/11/20 07:30:37;;;;;;;12.52;7.60;;;;;;;7.15;43.97;93773.16;4931447;28;20046;-79
2023/11/20 07:33:03;;;;;;;19.80;9.23;;;;;;;7.36;43.74;93768.28;4928668;28;20534;-80
2023/11/20 07:35:28;;;;;;;11.88;7.90;;;;;;;7.26;43.22;93752.59;4932338;28;20216;-79
2023/11/20 07:37:54;;;;;;;13.68;7.85;;;;;;;7.21;43.16;93764.06;4930509;28;20046;-79
2023/11/20 07:40:19;;;;;;;14.10;6.93;;;;;;;7.19;43.11;93762.78;4930198;28;20791;-80
2023/11/20 07:42:46;;;;;;;10.07;6.63;;;;;;;6.95;43.37;93746.28;4930785;28;20039;-80
2023/11/20 07:45:12;;;;;;;17.45;7.88;;;;;;;6.21;43.60;93634.47;4931276;28;20838;-78
2023/11/20 07:47:41;;;;;;;15.93;6.80;;;;;;;7.18;43.31;93748.78;4931451;28;20399;-79
2023/11/20 07:50:08;;;;;;;12.88;8.07;;;;;;;7.13;44.15;93733.00;4929647;28;20123;-79
2023/11/20 07:52:36;;;;;;;19.35;7.45;;;;;;;7.40;43.88;93732.22;4933065;28;20047;-80
2023/11/20 07:55:02;;;;;;;14.35;8.30;;;;;;;7.47;43.00;93722.03;4928304;28;20169;-79
2023/11/20 07:57:28;;;;;;;10.88;7.57;;;;;;;7.51;43.28;93723.00;4940563;28;20031;-76
2023/11/20 07:59:54;;;;;;;17.05;9.13;;;;;;;7.53;43.91;93722.72;4939396;28;20578;-78
2023/11/20 08:02:20;;;;;;;15.55;8.15;;;;;;;7.75;43.71;93719.38;4937748;28;20031;-79
2023/11/20 08:04:47;;;;;;;19.38;7.22;;;;;;;7.62;42.96;93718.28;4934526;28;20035;-78
2023/11/20 08:07:13;;;;;;;15.10;7.15;;;;;;;7.48;43.61;93714.88;4932612;28;20140;-77
2023/11/20 08:09:39;;;;;;;16.73;7.85;;;;;;;7.56;43.70;93709.66;4933621;28;20050;-79
2023/11/20 08:12:05;;;;;;;14.63;8.30;;;;;;;7.53;43.67;93723.47;4937085;28;20802;-79
2023/11/20 08:14:31;;;;;;;13.88;8.10;;;;;;;7.51;42.91;93712.41;4932965;28;20039;-79
2023/11/20 08:16:58;;;;;;;13.77;9.05;;;;;;;7.77;43.23;93730.47;4925669;28;20035;-74
2023/11/20 08:19:24;;;;;;;14.82;8.38;;;;;;;8.05;42.90;93724.00;4926898;28;20026;-79
2023/11/20 08:21:49;;;;;;;15.30;8.10;;;;;;;8.18;42.52;93698.56;4924042;28;20031;-79
2023/11/20 08:24:15;;;;;;;15.77;7.90;;;;;;;8.18;42.70;93704.63;4923688;28;20755;-77
2023/11/20 08:26:40;;;;;;;24.73;10.63;;;;;;;8.46;42.49;93707.97;4925177;28;20582;-78
2023/11/20 08:29:11;;;;;;;15.52;9.73;;;;;;;8.44;42.41;93713.56;4925718;28;20041;-79
2023/11/20 08:31:37;;;;;;;17.65;10.27;;;;;;;8.47;42.27;93707.66;4939608;28;20128;-75
2023/11/20 08:34:02;;;;;;;20.95;9.48;;;;;;;8.21;42.58;93709.34;4926091;28;20595;-78
2023/11/20 08:36:28;;;;;;;13.80;8.80;;;;;;;8.28;41.41;93688.50;4923820;28;20048;-79
2023/11/20 08:38:53;;;;;;;24.30;10.25;;;;;;;8.35;41.84;93694.19;4927660;28;20628;-79
2023/11/20 08:41:18;;;;;;;13.95;8.18;;;;;;;8.56;41.65;93710.34;4927963;28;20078;-80
2023/11/20 08:43:44;;;;;;;14.90;7.82;;;;;;;8.72;41.63;93702.81;4925081;28;20320;-75
2023/11/20 08:46:09;;;;;;;14.27;8.57;;;;;;;8.64;41.43;93703.56;4930160;28;20031;-78
2023/11/20 08:48:35;;;;;;;23.02;7.63;;;;;;;8.52;41.37;93712.81;4924609;28;20058;-78
2023/11/20 08:51:01;;;;;;;13.77;8.35;;;;;;;8.82;40.93;93718.47;4922655;28;20129;-80
2023/11/20 08:53:27;;;;;;;15.82;8.25;;;;;;;8.92;41.04;93703.09;4926796;28;20031;-79
2023/11/20 08:55:53;;;;;;;12.40;8.38;;;;;;;9.08;40.85;93711.44;4926218;28;20044;-79
2023/11/20 08:58:18;;;;;;;17.08;7.72;;;;;;;9.03;40.71;93719.53;4942160;28;20035;-80
2023/11/20 09:00:43;;;;;;;13.90;7.18;;;;;;;9.09;40.07;93706.91;4928620;28;20027;-80
2023/11/20 09:03:11;;;;;;;9.98;6.68;;;;;;;9.09;40.27;93706.91;4927764;28;20082;-79
2023/11/20 09:05:37;;;;;;;14.18;7.63;;;;;;;8.92;40.26;93684.53;4927487;28;20560;-79
2023/11/20 09:08:03;;;;;;;15.00;6.88;;;;;;;9.10;39.91;93698.63;4924668;28;20043;-80
2023/11/20 09:10:28;;;;;;;12.85;6.38;;;;;;;9.29;39.56;93691.22;4926564;28;20782;-76
2023/11/20 09:12:53;;;;;;;14.82;8.32;;;;;;;9.11;40.10;93705.53;4928596;28;20031;-79
2023/11/20 09:15:19;;;;;;;15.55;7.20;;;;;;;9.33;39.79;93700.19;4928293;28;20042;-79
2023/11/20 09:17:45;;;;;;;15.07;7.32;;;;;;;9.30;40.44;93670.78;4925346;28;20035;-81
2023/11/20 09:20:18;;;;;;;12.10;6.90;;;;;;;9.36;39.63;93669.56;4924837;28;20066;-78
2023/11/20 09:22:44;;;;;;;14.05;6.43;;;;;;;9.59;39.47;93683.50;4927647;28;20329;-79
2023/11/20 09:25:09;;;;;;;10.07;6.60;;;;;;;9.64;39.48;93686.03;4926929;28;20035;-79
2023/11/20 09:27:35;;;;;;;16.58;7.32;;;;;;;9.46;40.36;93663.97;4925105;28;20066;-79
2023/11/20 09:30:00;;;;;;;18.63;6.97;;;;;;;9.32;41.11;93677.38;4925915;28;20399;-77
2023/11/20 09:32:29;;;;;;;10.25;6.38;;;;;;;9.56;40.66;93690.22;4940885;28;20138;-76
2023/11/20 09:34:54;;;;;;;10.00;6.18;;;;;;;9.73;39.92;93678.88;4924775;28;20062;-73
2023/11/20 09:37:20;;;;;;;10.27;6.30;;;;;;;9.75;40.31;93676.69;4924159;28;20031;-79
2023/11/20 09:39:46;;;;;;;14.52;6.35;;;;;;;9.78;41.00;93671.50;4927049;28;20513;-80
2023/11/20 09:42:14;;;;;;;12.70;5.60;;;;;;;9.83;40.64;93638.72;4927156;28;20130;-79
2023/11/20 09:44:43;;;;;;;10.70;5.47;;;;;;;10.23;40.87;93666.69;4926558;28;20043;-80
2023/11/20 09:47:12;;;;;;;9.43;5.53;;;;;;;10.42;40.84;93650.44;4927659;28;20075;-78
2023/11/20 09:49:40;;;;;;;9.50;5.03;;;;;;;10.45;41.24;93644.50;4924961;28;20043;-79
2023/11/20 09:52:07;;;;;;;19.52;6.18;;;;;;;10.56;41.60;93627.09;4929115;28;20110;-79
2023/11/20 09:54:37;;;;;;;10.25;4.60;;;;;;;10.48;40.50;93635.09;4940873;28;20047;-81
2023/11/20 09:57:04;;;;;;;23.30;7.28;;;;;;;10.37;40.48;93639.22;4928358;28;20031;-78
2023/11/20 09:59:29;;;;;;;13.65;5.53;;;;;;;10.53;41.30;93637.59;4928202;28;20122;-79
2023/11/20 10:01:58;;;;;;;10.95;4.90;;;;;;;10.20;41.76;93632.00;4927506;28;20043;-80
2023/11/20 10:04:24;;;;;;;9.18;3.97;;;;;;;10.38;42.49;93635.44;4924330;28;20031;-80
2023/11/20 10:06:54;;;;;;;6.13;2.83;;;;;;;10.54;41.98;93629.31;4923600;28;20448;-79
2023/11/20 10:09:22;;;;;;;8.38;2.30;;;;;;;10.66;42.02;93642.72;4942088;28;20451;-79
2023/11/20 10:11:52;;;;;;;6.45;3.13;;;;;;;10.61;42.70;93644.78;4922246;28;20065;-75
2023/11/20 10:14:20;;;;;;;6.13;2.63;;;;;;;10.57;42.63;93635.84;4927106;28;20039;-78
2023/11/20 10:16:46;;;;;;;4.38;2.50;;;;;;;10.72;42.75;93636.13;4922272;28;20039;-79
2023/11/20 10:19:15;;;;;;;3.85;1.52;;;;;;;10.70;42.01;93608.31;4928985;28;20023;-77
2023/11/20 10:21:40;;;;;;;3.30;1.80;;;;;;;10.92;42.32;93626.69;4926028;28;20034;-76
2023/11/20 10:24:07;;;;;;;2.15;1.40;;;;;;;10.92;42.12;93634.66;4939480;28;20036;-79
2023/11/20 10:26:33;;;;;;;3.00;1.60;;;;;;;11.04;41.38;93632.13;4931045;28;20034;-79
2023/11/20 10:28:59;;;;;;;5.57;1.60;;;;;;;11.07;41.66;93636.00;4925515;28;20043;-80
2023/11/20 10:31:27;;;;;;;2.10;0.93;;;;;;;10.89;40.95;93607.91;4925542;28;20034;-77
2023/11/20 10:34:09;;;;;;;4.50;1.70;;;;;;;11.09;41.23;93633.81;4924697;28;20039;-76
2023/11/20 10:36:36;;;;;;;1.70;1.17;;;;;;;10.95;41.40;93619.97;4931601;28;20122;-77
2023/11/20 10:39:03;;;;;;;3.47;1.52;;;;;;;10.92;41.57;93624.03;4925837;28;20028;-78
2023/11/20 10:41:29;;;;;;;5.97;2.38;;;;;;;11.00;41.74;93631.19;4924985;28;20102;-79
2023/11/20 10:43:55;;;;;;;5.82;2.13;;;;;;;11.11;41.37;93629.72;4924016;28;20047;-77
2023/11/20 10:46:23;;;;;;;2.50;1.33;;;;;;;11.31;40.97;93622.91;4930290;28;20789;-79
2023/11/20 10:48:49;;;;;;;3.58;1.67;;;;;;;11.15;40.20;93617.34;4924939;28;20366;-81
2023/11/20 10:51:18;;;;;;;3.38;1.00;;;;;;;11.21;40.54;93638.44;4924809;28;20059;-80
2023/11/20 10:54:02;;;;;;;2.65;0.90;;;;;;;11.17;39.97;93625.00;4939297;28;20110;-80
2023/11/20 10:56:31;;;;;;;2.17;0.90;;;;;;;11.27;40.45;93623.88;4919760;28;20074;-74
2023/11/20 10:58:59;;;;;;;2.03;1.00;;;;;;;11.17;39.09;93635.66;4924735;28;20046;-76
2023/11/20 11:01:28;;;;;;;1.05;0.82;;;;;;;10.98;39.96;93636.06;4924079;28;20122;-80
2023/11/20 11:03:56;;;;;;;2.80;1.10;;;;;;;11.11;40.69;93643.03;4924608;28;20046;-80
2023/11/20 11:06:24;;;;;;;0.98;0.90;;;;;;;11.12;39.71;93639.28;4925822;28;20210;-80
2023/11/20 11:08:52;;;;;;;4.90;1.17;;;;;;;11.12;39.87;93644.59;4922298;28;20126;-79
2023/11/20 11:11:18;;;;;;;4.38;1.83;;;;;;;10.91;38.35;93649.06;4941387;28;20396;-81
2023/11/20 11:13:48;;;;;;;3.45;1.50;;;;;;;10.63;38.92;93642.56;4922529;28;20131;-78
2023/11/20 11:16:37;;;;;;;2.80;1.27;;;;;;;10.62;38.95;93641.00;4927917;28;20058;-74
2023/11/20 11:19:20;;;;;;;5.30;1.45;;;;;;;10.56;39.15;93632.41;4940682;28;20023;-80
2023/11/20 11:21:56;;;;;;;2.88;1.30;;;;;;;10.68;39.51;93655.72;4922388;28;20051;-79
2023/11/20 11:24:23;;;;;;;4.90;1.38;;;;;;;10.57;39.74;93659.78;4927338;28;20431;-76
2023/11/20 11:27:21;;;;;;;5.75;1.38;;;;;;;10.70;41.31;93661.50;4925287;28;20047;-79
2023/11/20 11:29:56;;;;;;;1.73;1.08;;;;;;;10.52;44.21;93663.41;4924732;28;20454;-80
2023/11/20 11:32:24;;;;;;;1.83;1.30;;;;;;;10.34;46.37;93640.56;4926939;28;20040;-79
2023/11/20 11:35:27;;;;;;;2.38;1.27;;;;;;;10.29;48.49;93654.81;4924996;28;20373;-77
2023/11/20 11:38:04;;;;;;;2.35;1.85;;;;;;;10.22;50.26;93653.75;4930365;28;20568;-79
2023/11/20 11:40:49;;;;;;;2.33;1.65;;;;;;;10.15;50.67;93654.19;4923468;28;20527;-80
2023/11/20 11:43:24;;;;;;;3.00;1.90;;;;;;;9.96;51.00;93655.59;4925336;28;20027;-79
2023/11/20 11:45:52;;;;;;;3.38;1.80;;;;;;;9.87;49.86;93669.69;4923565;28;20913;-79
2023/11/20 11:48:17;;;;;;;3.90;1.95;;;;;;;9.89;49.66;93672.00;4922371;28;20633;-76
2023/11/20 11:50:44;;;;;;;4.38;1.90;;;;;;;9.77;50.49;93663.88;4924138;28;20051;-80
2023/11/20 11:53:12;;;;;;;3.22;2.33;;;;;;;10.00;50.47;93673.25;4925390;28;20091;-79
2023/11/20 11:55:42;;;;;;;3.70;2.92;;;;;;;9.87;51.12;93647.63;4929811;28;20090;-80
2023/11/20 11:58:15;;;;;;;3.40;2.40;;;;;;;9.94;51.22;93663.88;4900014;28;20310;-77
2023/11/20 12:00:41;;;;;;;3.67;2.38;;;;;;;9.94;50.54;93631.22;4919066;28;20043;-79
2023/11/20 12:03:13;;;;;;;3.20;2.00;;;;;;;10.08;50.60;93637.94;4930641;28;20534;-79
2023/11/20 12:05:54;;;;;;;2.40;1.70;;;;;;;10.22;49.44;93651.84;4926830;28;20043;-81
2023/11/20 12:08:22;;;;;;;7.32;2.65;;;;;;;10.12;49.52;93638.88;4926689;28;20075;-79
2023/11/20 12:10:52;;;;;;;5.22;2.28;;;;;;;10.12;49.08;93659.38;4925394;28;20271;-79
2023/11/20 12:13:21;;;;;;;3.00;1.30;;;;;;;10.25;49.40;93650.44;4929258;28;20027;-76